Time;durP1;ratioP1;P1;durP2;ratioP2;P2;SDS_P1;SDS_P2;PMS_P1;PMS_P2;Temp;Humidity;BMP_temperature;BMP_pressure;BME280_temperature;BME280_humidity;BME280_pressure;Samples;Min_cycle;Max_cycle;Signal;HPM_P1;HPM_P2
2024/04/19 00:00:53;;;;;;;6.22;1.50;;;;;;;6.06;100.00;101093.47;5175022;27;20488;-77
2024/04/19 00:03:19;;;;;;;4.45;1.17;;;;;;;6.08;100.00;101090.56;5173369;27;20828;-75
2024/04/19 00:05:46;;;;;;;7.72;1.52;;;;;;;6.07;100.00;101084.44;5149762;27;20021;-76
2024/04/19 00:08:30;;;;;;;6.57;1.50;;;;;;;6.06;100.00;101079.34;5172529;27;20013;-76
2024/04/19 00:10:55;;;;;;;5.55;2.00;;;;;;;6.06;100.00;101066.88;5210273;27;20017;-76
2024/04/19 00:13:21;;;;;;;3.28;1.25;;;;;;;6.09;100.00;101073.56;5167882;27;20012;-76
2024/04/19 00:15:47;;;;;;;;;;;;;;;6.09;100.00;101054.94;5179267;27;20036;-76
2024/04/19 00:18:13;;;;;;;8.43;3.05;;;;;;;6.09;100.00;101055.75;5197565;27;19937;-75
2024/04/19 00:20:39;;;;;;;6.63;1.45;;;;;;;6.10;100.00;101046.75;5183081;27;20004;-75
2024/04/19 00:23:08;;;;;;;11.27;2.15;;;;;;;6.10;100.00;101040.63;5200059;27;20008;-79
2024/04/19 00:25:34;;;;;;;;;;;;;;;6.10;100.00;101038.78;5143816;27;20541;-77
2024/04/19 00:28:00;;;;;;;3.88;1.50;;;;;;;6.10;100.00;101036.13;5202276;27;19928;-76
2024/04/19 00:30:26;;;;;;;4.40;1.63;;;;;;;6.11;100.00;101027.09;5193239;27;20084;-77
2024/04/19 00:32:52;;;;;;;6.47;2.03;;;;;;;6.07;100.00;101031.25;5166014;27;20099;-76
2024/04/19 00:35:22;;;;;;;5.82;1.80;;;;;;;6.08;100.00;101019.56;5212425;27;20004;-77
2024/04/19 00:37:47;;;;;;;5.63;1.77;;;;;;;6.08;100.00;101013.44;5206476;27;20011;-76
2024/04/19 00:40:31;;;;;;;3.92;1.50;;;;;;;6.06;100.00;101011.03;5146573;27;20038;-77
2024/04/19 00:42:58;;;;;;;7.93;2.05;;;;;;;6.09;100.00;101007.91;5200599;27;20008;-77
2024/04/19 00:45:37;;;;;;;5.18;1.83;;;;;;;6.10;100.00;100998.91;5146161;27;20071;-76
2024/04/19 00:48:15;;;;;;;7.63;1.65;;;;;;;6.09;100.00;100991.13;5176112;27;20238;-75
2024/04/19 00:51:00;;;;;;;5.72;1.40;;;;;;;6.11;100.00;100986.41;5172944;27;20012;-76
2024/04/19 00:53:31;;;;;;;5.55;1.70;;;;;;;6.10;100.00;100988.25;5178603;27;20030;-76
2024/04/19 00:56:16;;;;;;;5.35;1.60;;;;;;;6.05;100.00;100982.03;5204888;27;20529;-77
2024/04/19 00:58:42;;;;;;;4.13;1.35;;;;;;;6.04;100.00;100978.56;5148789;27;20011;-76
2024/04/19 01:01:08;;;;;;;7.00;1.65;;;;;;;6.02;100.00;100976.09;5136833;27;20046;-75
2024/04/19 01:03:33;;;;;;;4.72;1.20;;;;;;;6.05;100.00;100971.38;5201746;27;20019;-76
2024/04/19 01:05:59;;;;;;;7.28;1.95;;;;;;;6.03;100.00;100958.34;5177192;27;20011;-75
2024/04/19 01:08:25;;;;;;;7.85;1.88;;;;;;;6.05;100.00;100963.41;5192044;27;20039;-75
2024/04/19 01:10:52;;;;;;;4.82;2.25;;;;;;;6.06;100.00;100959.72;5144190;27;20034;-77
2024/04/19 01:13:17;;;;;;;4.45;1.55;;;;;;;6.06;100.00;100955.19;5130202;27;20014;-77
2024/04/19 01:15:43;;;;;;;8.60;1.38;;;;;;;6.01;100.00;100941.78;5165276;27;20004;-76
2024/04/19 01:18:09;;;;;;;6.00;1.35;;;;;;;6.01;100.00;100942.59;5201578;27;20011;-75
2024/04/19 01:20:35;;;;;;;5.78;1.70;;;;;;;5.99;100.00;100938.56;5199120;27;20241;-77
2024/04/19 01:23:04;;;;;;;5.32;2.15;;;;;;;5.96;100.00;100931.88;5198502;27;20018;-76
2024/04/19 01:25:38;;;;;;;7.40;1.88;;;;;;;5.93;100.00;100931.53;5191250;27;20004;-76
2024/04/19 01:28:11;;;;;;;7.43;1.80;;;;;;;5.93;100.00;100934.19;5205291;27;20012;-75
2024/04/19 01:30:42;;;;;;;5.70;1.63;;;;;;;5.91;100.00;100930.97;5202677;27;20004;-75
2024/04/19 01:33:08;;;;;;;4.03;1.73;;;;;;;5.88;100.00;100920.75;5170246;27;20063;-75
2024/04/19 01:35:34;;;;;;;5.03;1.50;;;;;;;5.84;100.00;100914.31;5175045;27;20354;-75
2024/04/19 01:37:59;;;;;;;3.47;1.85;;;;;;;5.82;100.00;100903.06;5202500;27;20011;-75
2024/04/19 01:40:25;;;;;;;4.82;1.95;;;;;;;5.83;100.00;100902.06;5198907;27;20012;-76
2024/04/19 01:42:51;;;;;;;8.20;2.22;;;;;;;5.82;100.00;100895.91;5193727;27;20485;-75
2024/04/19 01:45:17;;;;;;;5.18;1.80;;;;;;;5.79;100.00;100898.25;5172720;27;20008;-75
2024/04/19 01:47:43;;;;;;;8.93;1.90;;;;;;;5.73;100.00;100892.81;5199326;27;20557;-76
2024/04/19 01:50:08;;;;;;;8.23;1.95;;;;;;;5.68;100.00;100886.56;5178766;27;20527;-76
2024/04/19 01:52:34;;;;;;;6.38;2.10;;;;;;;5.68;100.00;100884.72;5166008;27;20504;-76
2024/04/19 01:55:01;;;;;;;6.22;1.95;;;;;;;5.64;100.00;100870.31;5172695;27;20381;-77
2024/04/19 01:57:26;;;;;;;5.10;1.70;;;;;;;5.61;100.00;100862.78;5175954;27;20003;-75
2024/04/19 01:59:52;;;;;;;6.10;2.33;;;;;;;5.56;100.00;100862.69;5200984;27;20013;-75
2024/04/19 02:02:18;;;;;;;7.45;2.58;;;;;;;5.53;100.00;100857.84;5174125;27;20018;-76
2024/04/19 02:04:47;;;;;;;6.05;2.10;;;;;;;5.44;100.00;100843.31;5168195;27;20014;-75
2024/04/19 02:07:13;;;;;;;4.75;2.00;;;;;;;5.42;100.00;100843.53;5179506;27;20000;-73
2024/04/19 02:09:39;;;;;;;5.50;2.22;;;;;;;5.41;100.00;100833.13;5178268;27;20454;-75
2024/04/19 02:12:05;;;;;;;7.55;2.55;;;;;;;5.39;100.00;100821.94;5204173;27;20104;-75
2024/04/19 02:14:33;;;;;;;4.63;2.10;;;;;;;5.38;100.00;100815.00;5176106;27;20043;-75
2024/04/19 02:16:59;;;;;;;3.58;2.50;;;;;;;5.33;100.00;100817.56;5178684;27;20080;-74
2024/04/19 02:19:24;;;;;;;7.28;2.50;;;;;;;5.31;100.00;100801.06;5146511;27;20020;-75
2024/04/19 02:21:50;;;;;;;5.25;2.10;;;;;;;5.27;100.00;100799.91;5155687;27;20004;-75
2024/04/19 02:24:15;;;;;;;7.22;2.83;;;;;;;5.23;100.00;100796.09;5152832;27;20476;-74
2024/04/19 02:26:41;;;;;;;7.05;2.60;;;;;;;5.18;100.00;100780.88;5176372;27;20015;-74
2024/04/19 02:31:51;;;;;;;;;;;;;;;5.16;100.00;100770.47;5188649;27;20091;-73
2024/04/19 02:34:17;;;;;;;8.13;2.60;;;;;;;5.16;100.00;100778.44;5177505;27;19951;-72
2024/04/19 02:36:42;;;;;;;7.05;3.00;;;;;;;5.13;100.00;100762.97;5205308;27;20087;-73
2024/04/19 02:39:08;;;;;;;8.55;3.20;;;;;;;5.07;100.00;100749.81;5175056;27;20040;-73
2024/04/19 02:41:33;;;;;;;4.20;2.60;;;;;;;5.03;100.00;100744.19;5198135;27;20018;-74
2024/04/19 02:43:59;;;;;;;4.75;2.92;;;;;;;5.03;100.00;100743.38;5179397;27;20007;-74
2024/04/19 02:46:26;;;;;;;6.25;2.78;;;;;;;4.99;100.00;100731.59;5179084;27;20018;-75
2024/04/19 02:48:52;;;;;;;6.75;3.03;;;;;;;4.96;100.00;100727.56;5175573;27;20079;-73
2024/04/19 02:51:18;;;;;;;5.57;2.80;;;;;;;4.91;100.00;100722.16;5172252;27;20015;-73
2024/04/19 02:53:44;;;;;;;6.05;3.10;;;;;;;4.88;100.00;100704.84;5151680;27;20079;-74
2024/04/19 02:56:09;;;;;;;6.93;3.30;;;;;;;4.84;100.00;100709.00;5175187;27;20015;-73
2024/04/19 02:58:35;;;;;;;6.05;2.85;;;;;;;4.88;100.00;100709.34;5173088;27;20003;-74
2024/04/19 03:01:01;;;;;;;7.70;2.92;;;;;;;4.88;100.00;100693.44;5130324;27;20007;-75
2024/04/19 03:03:26;;;;;;;3.47;2.63;;;;;;;4.85;100.00;100685.94;5142598;27;20008;-73
2024/04/19 03:05:55;;;;;;;6.55;2.60;;;;;;;4.82;100.00;100678.44;5152130;27;20039;-75
2024/04/19 03:08:22;;;;;;;7.22;2.80;;;;;;;4.83;100.00;100669.44;5172205;27;20013;-74
2024/04/19 03:10:48;;;;;;;5.25;2.78;;;;;;;4.79;100.00;100660.31;5200026;27;20012;-75
2024/04/19 03:13:13;;;;;;;5.25;2.83;;;;;;;4.75;100.00;100661.84;5199948;27;20027;-75
2024/04/19 03:15:39;;;;;;;4.97;3.53;;;;;;;4.70;100.00;100653.75;5144781;27;20008;-74
2024/04/19 03:18:05;;;;;;;5.82;2.90;;;;;;;4.70;100.00;100649.25;5177808;27;20022;-74
2024/04/19 03:20:31;;;;;;;;;;;;;;;4.72;100.00;100641.06;5203025;27;20011;-74
2024/04/19 03:22:57;;;;;;;5.57;2.65;;;;;;;4.66;100.00;100629.53;5171816;27;20003;-74
2024/04/19 03:25:23;;;;;;;7.20;2.90;;;;;;;4.63;100.00;100622.06;5172297;27;20012;-75
2024/04/19 03:27:49;;;;;;;5.82;2.78;;;;;;;4.63;100.00;100616.75;5177268;27;20011;-74
2024/04/19 03:30:37;;;;;;;5.55;2.58;;;;;;;4.60;100.00;100607.41;5152839;27;20016;-74
2024/04/19 03:33:03;;;;;;;6.45;3.10;;;;;;;4.62;100.00;100605.34;5166875;27;20056;-74
2024/04/19 03:35:29;;;;;;;4.97;2.58;;;;;;;4.58;100.00;100598.88;5188131;27;20374;-74
2024/04/19 03:37:55;;;;;;;4.07;2.97;;;;;;;4.56;100.00;100606.28;5169057;27;20537;-75
2024/04/19 03:40:21;;;;;;;4.10;2.72;;;;;;;4.53;100.00;100590.00;5175624;27;20011;-75
2024/04/19 03:42:48;;;;;;;4.75;3.45;;;;;;;4.55;100.00;100594.06;5172157;27;20012;-76
2024/04/19 03:47:59;;;;;;;6.20;2.72;;;;;;;4.56;100.00;100577.09;5202342;27;20004;-74
2024/04/19 03:50:25;;;;;;;;;;;;;;;4.52;100.00;100573.28;5170446;27;20020;-74
2024/04/19 03:52:50;;;;;;;3.40;2.38;;;;;;;4.55;100.00;100559.56;5171657;27;20626;-75
2024/04/19 03:55:16;;;;;;;3.40;2.60;;;;;;;4.53;100.00;100548.38;5186214;27;21349;-74
2024/04/19 03:57:42;;;;;;;4.30;3.05;;;;;;;4.57;100.00;100548.72;5185999;27;20004;-74
2024/04/19 04:00:09;;;;;;;3.15;2.40;;;;;;;4.48;100.00;100528.91;5191095;27;20003;-75
2024/04/19 04:02:40;;;;;;;3.60;2.25;;;;;;;4.47;100.00;100528.13;5150243;27;20012;-75
2024/04/19 04:05:06;;;;;;;4.10;2.83;;;;;;;4.54;100.00;100526.13;5187641;27;20016;-75
2024/04/19 04:07:31;;;;;;;3.97;3.00;;;;;;;4.54;100.00;100515.53;5202956;27;20012;-74
2024/04/19 04:09:57;;;;;;;3.20;2.45;;;;;;;4.53;100.00;100505.94;5180168;27;20004;-74
2024/04/19 04:12:24;;;;;;;3.97;2.88;;;;;;;4.52;100.00;100495.56;5195336;27;20012;-73
2024/04/19 04:14:58;;;;;;;3.10;2.40;;;;;;;4.53;100.00;100489.22;5185680;27;20008;-76
2024/04/19 04:17:23;;;;;;;5.70;2.72;;;;;;;4.54;100.00;100486.34;5181918;27;20020;-75
2024/04/19 04:19:49;;;;;;;4.25;2.83;;;;;;;4.45;100.00;100476.34;5130476;27;20026;-73
2024/04/19 04:22:15;;;;;;;5.00;3.00;;;;;;;4.44;100.00;100475.53;5152124;27;20015;-73
2024/04/19 04:24:41;;;;;;;4.70;3.60;;;;;;;4.43;100.00;100468.63;5176841;27;20012;-75
2024/04/19 04:27:06;;;;;;;5.57;3.70;;;;;;;4.43;100.00;100463.31;5180424;27;20012;-72
2024/04/19 04:29:32;;;;;;;4.28;3.63;;;;;;;4.43;100.00;100462.53;5194683;27;20474;-74
2024/04/19 04:31:58;;;;;;;6.72;4.10;;;;;;;4.39;100.00;100451.56;5193561;27;20036;-73
2024/04/19 04:34:23;;;;;;;5.15;3.40;;;;;;;4.36;100.00;100441.44;5169364;27;20592;-75
2024/04/19 04:36:49;;;;;;;5.13;3.90;;;;;;;4.35;100.00;100447.78;5200528;27;20087;-75
2024/04/19 04:39:14;;;;;;;5.65;4.25;;;;;;;4.34;100.00;100430.28;5120653;27;20624;-74
2024/04/19 04:41:40;;;;;;;5.65;4.47;;;;;;;4.35;100.00;100421.28;5144880;27;20022;-74
2024/04/19 04:44:12;;;;;;;4.50;3.47;;;;;;;4.36;100.00;100412.28;5178276;27;20019;-77
2024/04/19 04:46:39;;;;;;;4.10;3.45;;;;;;;4.34;100.00;100417.03;5201751;27;20008;-77
2024/04/19 04:49:05;;;;;;;;;;;;;;;4.37;100.00;100405.94;5170116;27;20026;-76
2024/04/19 04:51:31;;;;;;;4.70;3.95;;;;;;;4.34;100.00;100407.22;5192211;27;19935;-76
2024/04/19 04:53:57;;;;;;;5.70;4.03;;;;;;;4.35;100.00;100402.72;5188936;27;20011;-75
2024/04/19 04:56:22;;;;;;;4.85;3.38;;;;;;;4.32;100.00;100397.88;5149986;27;20013;-75
2024/04/19 04:58:48;;;;;;;6.10;3.55;;;;;;;4.29;100.00;100391.22;5169652;27;20008;-76
2024/04/19 05:01:14;;;;;;;4.68;3.40;;;;;;;4.23;100.00;100384.19;5166197;27;20009;-75
2024/04/19 05:03:39;;;;;;;4.38;2.75;;;;;;;4.16;100.00;100377.44;5171148;27;20073;-75
2024/04/19 05:06:05;;;;;;;4.60;2.65;;;;;;;4.19;100.00;100372.44;5170396;27;20033;-74
2024/04/19 05:08:31;;;;;;;3.15;2.63;;;;;;;4.13;100.00;100359.34;5193906;27;20091;-73
2024/04/19 05:10:57;;;;;;;4.25;2.25;;;;;;;4.15;100.00;100365.22;5173135;27;20011;-75
2024/04/19 05:13:23;;;;;;;3.22;2.50;;;;;;;4.14;100.00;100353.03;5190629;27;20016;-74
2024/04/19 05:15:50;;;;;;;;;;;;;;;4.09;100.00;100346.56;5185339;27;20927;-75
2024/04/19 05:18:18;;;;;;;2.58;2.00;;;;;;;4.15;100.00;100346.69;5185640;27;19935;-75
2024/04/19 05:20:46;;;;;;;2.58;2.15;;;;;;;4.15;100.00;100349.31;5149683;27;20074;-76
2024/04/19 05:23:12;;;;;;;3.13;2.45;;;;;;;4.14;100.00;100337.13;5146826;27;20011;-77
2024/04/19 05:25:40;;;;;;;3.33;2.08;;;;;;;4.14;100.00;100332.63;5209461;27;20012;-75
2024/04/19 05:28:06;;;;;;;2.85;2.47;;;;;;;4.16;100.00;100332.38;5199562;27;20014;-75
2024/04/19 05:30:33;;;;;;;3.38;2.38;;;;;;;4.17;100.00;100328.69;5179766;27;20035;-78
2024/04/19 05:32:58;;;;;;;3.95;3.10;;;;;;;4.21;100.00;100324.53;5177152;27;20008;-77
2024/04/19 05:35:26;;;;;;;3.70;2.58;;;;;;;4.20;100.00;100310.47;5145021;27;20103;-77
2024/04/19 05:37:55;;;;;;;5.28;2.90;;;;;;;4.21;100.00;100321.88;5147564;27;20012;-76
2024/04/19 05:40:20;;;;;;;3.33;2.83;;;;;;;4.25;100.00;100307.91;5203254;27;20047;-75
2024/04/19 05:42:46;;;;;;;3.97;3.08;;;;;;;4.23;100.00;100309.19;5169082;27;20024;-77
2024/04/19 05:45:12;;;;;;;3.83;3.00;;;;;;;4.26;100.00;100300.75;5200502;27;20004;-76
2024/04/19 05:47:38;;;;;;;3.28;2.72;;;;;;;4.28;100.00;100296.84;5186496;27;20079;-75
2024/04/19 05:50:04;;;;;;;3.63;2.58;;;;;;;4.32;100.00;100289.19;5181220;27;20007;-74
2024/04/19 05:52:31;;;;;;;3.35;2.50;;;;;;;4.33;100.00;100288.13;5199606;27;20717;-74
2024/04/19 05:54:57;;;;;;;3.58;2.65;;;;;;;4.36;100.00;100290.31;5191896;27;20023;-76
2024/04/19 05:57:23;;;;;;;4.32;3.13;;;;;;;4.38;100.00;100297.00;5185693;27;20012;-75
2024/04/19 05:59:48;;;;;;;3.10;2.70;;;;;;;4.42;100.00;100292.03;5177161;27;20021;-74
2024/04/19 06:02:14;;;;;;;3.88;2.90;;;;;;;4.43;100.00;100285.69;5175012;27;20079;-74
2024/04/19 06:04:39;;;;;;;3.67;3.25;;;;;;;4.46;100.00;100293.13;5176376;27;20040;-76
2024/04/19 06:07:06;;;;;;;3.83;2.40;;;;;;;4.53;100.00;100293.78;5202238;27;20525;-76
2024/04/19 06:09:32;;;;;;;3.72;2.60;;;;;;;4.53;100.00;100272.56;5174176;27;20011;-74
2024/04/19 06:12:01;;;;;;;3.72;3.10;;;;;;;4.53;100.00;100261.16;5184660;27;20087;-73
2024/04/19 06:14:27;;;;;;;4.10;3.00;;;;;;;4.54;100.00;100252.16;5203804;27;20044;-74
2024/04/19 06:16:53;;;;;;;3.40;2.53;;;;;;;4.54;100.00;100260.94;5147195;27;20007;-74
2024/04/19 06:19:19;;;;;;;;;;;;;;;4.60;100.00;100257.28;5184498;27;20371;-74
2024/04/19 06:21:45;;;;;;;3.05;2.40;;;;;;;4.62;100.00;100244.63;5148991;27;19935;-74
2024/04/19 06:24:10;;;;;;;3.55;3.20;;;;;;;4.64;100.00;100231.91;5173909;27;20019;-74
2024/04/19 06:26:37;;;;;;;4.55;2.53;;;;;;;4.68;100.00;100236.75;5211856;27;20018;-75
2024/04/19 06:29:04;;;;;;;3.42;2.50;;;;;;;4.73;100.00;100224.34;5180201;27;20040;-75
2024/04/19 06:31:30;;;;;;;3.20;2.75;;;;;;;4.77;100.00;100225.47;5203543;27;20003;-74
2024/04/19 06:33:56;;;;;;;3.00;2.53;;;;;;;4.81;100.00;100217.81;5205467;27;20004;-76
2024/04/19 06:36:21;;;;;;;5.35;2.95;;;;;;;4.85;100.00;100205.66;5178607;27;20007;-73
2024/04/19 06:38:49;;;;;;;3.00;2.35;;;;;;;4.87;100.00;100209.69;5153550;27;20008;-73
2024/04/19 06:41:15;;;;;;;3.05;2.75;;;;;;;4.93;100.00;100197.28;5203572;27;20010;-74
2024/04/19 06:43:40;;;;;;;3.78;2.85;;;;;;;4.96;100.00;100196.00;5182107;27;20016;-75
2024/04/19 06:46:06;;;;;;;4.32;2.58;;;;;;;5.00;100.00;100189.94;5171841;27;20572;-78
2024/04/19 06:48:32;;;;;;;3.53;2.60;;;;;;;5.03;100.00;100186.00;5148965;27;20477;-76
2024/04/19 06:50:58;;;;;;;2.80;2.50;;;;;;;5.08;100.00;100183.41;5199103;27;20082;-77
2024/04/19 06:53:23;;;;;;;4.85;3.10;;;;;;;5.13;100.00;100181.63;5198175;27;20065;-76
2024/04/19 06:55:49;;;;;;;3.45;2.50;;;;;;;5.18;100.00;100179.03;5180644;27;20072;-75
2024/04/19 06:58:14;;;;;;;3.63;2.75;;;;;;;5.25;100.00;100178.84;5148946;27;20450;-78
2024/04/19 07:00:40;;;;;;;3.72;3.10;;;;;;;5.31;100.00;100182.38;5192077;27;20152;-77
2024/04/19 07:03:06;;;;;;;4.20;3.00;;;;;;;5.37;100.00;100166.25;5173064;27;20004;-76
2024/04/19 07:05:31;;;;;;;4.47;3.58;;;;;;;5.45;100.00;100172.97;5169972;27;20004;-78
2024/04/19 07:07:57;;;;;;;4.60;4.10;;;;;;;5.53;100.00;100169.84;5208596;27;20039;-77
2024/04/19 07:10:23;;;;;;;5.20;4.53;;;;;;;5.60;100.00;100172.31;5179071;27;20015;-75
2024/04/19 07:12:50;;;;;;;4.88;4.25;;;;;;;5.63;100.00;100159.34;5207160;27;20008;-74
2024/04/19 07:15:16;;;;;;;5.80;4.15;;;;;;;5.67;100.00;100155.13;5206207;27;20012;-74
2024/04/19 07:17:41;;;;;;;4.95;4.20;;;;;;;5.73;100.00;100156.78;5158511;27;20003;-75
2024/04/19 07:20:07;;;;;;;5.65;4.10;;;;;;;5.78;100.00;100149.91;5154626;27;20003;-75
2024/04/19 07:22:35;;;;;;;6.75;4.25;;;;;;;5.86;100.00;100152.09;5207465;27;20034;-74
2024/04/19 07:25:02;;;;;;;6.28;4.88;;;;;;;5.90;100.00;100153.22;5180750;27;20008;-74
2024/04/19 07:27:30;;;;;;;6.32;4.20;;;;;;;5.97;100.00;100153.84;5205732;27;20015;-77
2024/04/19 07:29:56;;;;;;;5.78;5.00;;;;;;;6.04;100.00;100143.78;5176768;27;20000;-76
2024/04/19 07:32:22;;;;;;;6.93;4.65;;;;;;;6.11;100.00;100144.38;5170386;27;20027;-76
2024/04/19 07:34:48;;;;;;;6.40;5.70;;;;;;;6.14;100.00;100143.06;5178195;27;20011;-74
2024/04/19 07:37:13;;;;;;;6.90;5.60;;;;;;;6.18;100.00;100144.97;5180092;27;20053;-74
2024/04/19 07:39:39;;;;;;;9.32;5.40;;;;;;;6.23;100.00;100147.66;5181479;27;20019;-74
2024/04/19 07:42:06;;;;;;;6.25;4.90;;;;;;;6.29;100.00;100146.63;5173173;27;20041;-74
2024/04/19 07:44:32;;;;;;;7.00;5.35;;;;;;;6.32;100.00;100132.03;5169681;27;20007;-75
2024/04/19 07:46:57;;;;;;;7.05;5.28;;;;;;;6.37;100.00;100137.41;5172931;27;20071;-76
2024/04/19 07:49:23;;;;;;;8.00;5.28;;;;;;;6.39;100.00;100132.59;5206250;27;20014;-74
2024/04/19 07:51:49;;;;;;;7.07;4.63;;;;;;;6.50;100.00;100141.44;5199104;27;20012;-74
2024/04/19 07:54:15;;;;;;;;;;;;;;;6.56;100.00;100135.09;5206908;27;20003;-74
2024/04/19 07:56:46;;;;;;;7.47;4.88;;;;;;;6.54;100.00;100135.34;5178153;27;19929;-75
2024/04/19 07:59:11;;;;;;;5.53;4.55;;;;;;;6.57;100.00;100142.84;5169114;27;20011;-74
2024/04/19 08:01:37;;;;;;;6.97;4.93;;;;;;;6.63;100.00;100135.66;5185206;27;20023;-74
2024/04/19 08:04:03;;;;;;;7.80;5.30;;;;;;;6.73;100.00;100119.75;5197001;27;20019;-76
2024/04/19 08:06:29;;;;;;;6.00;5.40;;;;;;;6.84;100.00;100107.28;5205439;27;20012;-74
2024/04/19 08:08:55;;;;;;;8.57;4.70;;;;;;;6.94;100.00;100103.88;5184718;27;20025;-74
2024/04/19 08:11:21;;;;;;;6.90;4.22;;;;;;;7.08;100.00;100110.31;5172805;27;20008;-75
2024/04/19 08:13:46;;;;;;;7.53;4.35;;;;;;;7.25;100.00;100110.13;5199630;27;20886;-76
2024/04/19 08:16:12;;;;;;;7.00;4.30;;;;;;;7.36;100.00;100109.84;5148540;27;20004;-76
2024/04/19 08:18:38;;;;;;;6.70;3.90;;;;;;;7.46;100.00;100100.28;5172813;27;20875;-78
2024/04/19 08:21:03;;;;;;;7.30;4.15;;;;;;;7.56;100.00;100106.41;5201233;27;20007;-74
2024/04/19 08:23:29;;;;;;;5.72;3.80;;;;;;;7.61;100.00;100094.97;5137689;27;20381;-73
2024/04/19 08:25:55;;;;;;;5.82;3.17;;;;;;;7.73;100.00;100098.19;5199637;27;20023;-74
2024/04/19 08:28:25;;;;;;;6.28;3.38;;;;;;;7.86;100.00;100091.53;5148720;27;20366;-75
2024/04/19 08:30:54;;;;;;;5.72;2.72;;;;;;;8.02;100.00;100097.66;5161201;27;20016;-75
2024/04/19 08:33:20;;;;;;;4.95;2.92;;;;;;;8.16;100.00;100082.69;5203665;27;20044;-74
2024/04/19 08:35:56;;;;;;;5.50;3.10;;;;;;;8.30;100.00;100067.72;5152948;27;20061;-75
2024/04/19 08:38:22;;;;;;;4.22;2.58;;;;;;;8.40;100.00;100078.41;5203448;27;20466;-75
2024/04/19 08:40:55;;;;;;;5.43;2.55;;;;;;;8.55;100.00;100071.44;5145218;27;20241;-75
2024/04/19 08:43:22;;;;;;;4.95;2.72;;;;;;;8.58;100.00;100065.53;5180511;27;20004;-74
2024/04/19 08:45:48;;;;;;;5.63;2.00;;;;;;;8.73;100.00;100070.81;5172393;27;20015;-74
2024/04/19 08:48:14;;;;;;;5.80;1.88;;;;;;;8.80;100.00;100055.28;5196918;27;20027;-74
2024/04/19 08:50:42;;;;;;;6.00;1.70;;;;;;;8.84;100.00;100061.69;5202600;27;20015;-74
2024/04/19 08:53:09;;;;;;;6.00;1.50;;;;;;;8.89;100.00;100061.69;5207042;27;20972;-75
2024/04/19 08:55:38;;;;;;;7.32;1.05;;;;;;;8.99;100.00;100058.94;5202293;27;20022;-75
2024/04/19 08:58:05;;;;;;;8.27;1.75;;;;;;;9.18;100.00;100058.31;5188251;27;20059;-75
2024/04/19 09:00:30;;;;;;;3.78;1.35;;;;;;;9.23;100.00;100052.94;5158886;27;20056;-75
2024/04/19 09:02:56;;;;;;;5.85;1.50;;;;;;;9.27;100.00;100043.28;5173245;27;20019;-76
2024/04/19 09:05:22;;;;;;;8.25;1.75;;;;;;;9.27;100.00;100049.41;5174808;27;21191;-73
2024/04/19 09:07:47;;;;;;;6.30;1.50;;;;;;;9.28;100.00;100044.91;5180809;27;20003;-75
2024/04/19 09:10:13;;;;;;;6.47;1.23;;;;;;;9.17;100.00;100048.69;5208753;27;20068;-76
2024/04/19 09:12:39;;;;;;;6.50;1.60;;;;;;;9.16;100.00;100052.44;5171974;27;20012;-74
2024/04/19 09:15:05;;;;;;;5.38;1.25;;;;;;;8.93;100.00;100049.34;5173945;27;20019;-74
2024/04/19 09:17:32;;;;;;;4.45;1.63;;;;;;;8.76;100.00;100062.28;5202714;27;20067;-76
2024/04/19 09:19:58;;;;;;;6.68;1.30;;;;;;;8.65;100.00;100053.50;5174190;27;20011;-74
2024/04/19 09:22:23;;;;;;;8.45;1.90;;;;;;;8.65;100.00;100052.69;5149284;27;20374;-74
2024/04/19 09:24:54;;;;;;;5.43;1.60;;;;;;;8.54;100.00;100064.50;5181471;27;20007;-75
2024/04/19 09:27:23;;;;;;;2.83;1.05;;;;;;;8.50;100.00;100071.44;5169431;27;20044;-75
2024/04/19 09:29:50;;;;;;;3.45;0.85;;;;;;;8.50;100.00;100058.88;5128646;27;20335;-74
2024/04/19 09:32:23;;;;;;;4.45;0.98;;;;;;;8.58;100.00;100062.88;5148552;27;20007;-76
2024/04/19 09:34:49;;;;;;;4.95;1.10;;;;;;;8.62;100.00;100047.91;5201261;27;20013;-75
2024/04/19 09:37:15;;;;;;;6.70;1.08;;;;;;;8.71;100.00;100051.59;5207266;27;20094;-75
2024/04/19 09:39:41;;;;;;;6.03;0.90;;;;;;;8.81;100.00;100045.44;5204087;27;20588;-75
2024/04/19 09:42:09;;;;;;;6.18;1.20;;;;;;;8.88;100.00;100054.75;5180891;27;20030;-75
2024/04/19 09:44:38;;;;;;;6.03;1.52;;;;;;;8.77;100.00;100074.53;5188796;27;20020;-75
2024/04/19 09:47:05;;;;;;;5.93;1.17;;;;;;;8.29;100.00;100092.81;5174048;27;20040;-80
2024/04/19 09:49:31;;;;;;;;;;;;;;;7.85;100.00;100093.38;5200973;27;20012;-75
2024/04/19 09:51:58;;;;;;;8.55;2.95;;;;;;;7.70;100.00;100100.56;5151731;27;19928;-74
2024/04/19 09:54:36;;;;;;;13.20;3.35;;;;;;;7.51;100.00;100084.28;5176932;27;20012;-76
2024/04/19 09:57:04;;;;;;;6.90;3.38;;;;;;;7.39;100.00;100064.06;5215827;27;20007;-74
2024/04/19 09:59:31;;;;;;;9.10;3.20;;;;;;;7.35;100.00;100068.28;5188886;27;20020;-75
2024/04/19 10:01:57;;;;;;;7.88;2.72;;;;;;;7.35;100.00;100062.97;5207599;27;20620;-75
2024/04/19 10:04:25;;;;;;;8.20;3.13;;;;;;;7.44;100.00;100059.78;5198688;27;20009;-74
2024/04/19 10:06:51;;;;;;;5.60;2.35;;;;;;;7.58;100.00;100058.19;5184695;27;20012;-76
2024/04/19 10:09:20;;;;;;;5.10;1.60;;;;;;;7.60;100.00;100048.09;5183079;27;20663;-76
2024/04/19 10:11:48;;;;;;;6.03;1.95;;;;;;;7.80;100.00;100041.94;5213024;27;20147;-75
2024/04/19 10:14:15;;;;;;;4.68;1.90;;;;;;;7.94;100.00;100037.66;5178128;27;20004;-75
2024/04/19 10:16:41;;;;;;;7.95;2.03;;;;;;;8.12;100.00;100039.75;5205526;27;20015;-75
2024/04/19 10:19:08;;;;;;;6.15;2.00;;;;;;;8.18;100.00;100021.88;5150952;27;20008;-74
2024/04/19 10:21:36;;;;;;;6.25;2.42;;;;;;;8.37;100.00;100024.78;5181790;27;20359;-75
2024/04/19 10:24:22;;;;;;;5.57;1.92;;;;;;;8.62;100.00;100016.69;5197347;27;20053;-73
2024/04/19 10:26:53;;;;;;;7.70;2.17;;;;;;;8.82;100.00;100007.78;5215611;27;20035;-73
2024/04/19 10:29:20;;;;;;;5.75;2.10;;;;;;;9.01;100.00;100014.06;5172070;27;20404;-75
2024/04/19 10:31:51;;;;;;;7.20;2.45;;;;;;;9.22;100.00;100008.59;5154674;27;20007;-74
2024/04/19 10:34:17;;;;;;;9.20;2.10;;;;;;;9.38;100.00;99994.03;5197393;27;20022;-74
2024/04/19 10:36:45;;;;;;;6.65;2.20;;;;;;;9.56;100.00;99988.00;5174058;27;20346;-75
2024/04/19 10:39:11;;;;;;;5.45;2.05;;;;;;;9.64;100.00;99986.59;5206224;27;20023;-75
2024/04/19 10:41:49;;;;;;;9.13;2.50;;;;;;;9.77;100.00;99987.81;5141862;27;20036;-73
2024/04/19 10:44:16;;;;;;;5.32;1.50;;;;;;;9.96;100.00;99971.88;5172408;27;20055;-74
2024/04/19 10:46:44;;;;;;;4.80;1.52;;;;;;;9.96;100.00;99983.34;5199871;27;20629;-76
2024/04/19 10:49:10;;;;;;;8.98;1.58;;;;;;;9.81;100.00;99980.81;5174319;27;20091;-76
2024/04/19 10:51:36;;;;;;;4.88;1.90;;;;;;;9.63;100.00;99986.91;5170271;27;20370;-74
2024/04/19 10:54:02;;;;;;;;;;;;;;;9.49;100.00;100003.56;5176498;27;20027;-73
2024/04/19 10:56:29;;;;;;;6.05;2.25;;;;;;;9.27;100.00;99982.63;5208425;27;19928;-76
2024/04/19 10:58:58;;;;;;;6.32;1.70;;;;;;;9.20;100.00;99984.81;5195476;27;20008;-75
2024/04/19 11:01:24;;;;;;;4.75;1.45;;;;;;;9.19;100.00;99983.22;5202113;27;20022;-75
2024/04/19 11:03:50;;;;;;;3.65;1.40;;;;;;;9.45;100.00;99981.16;5149121;27;20019;-74
2024/04/19 11:06:17;;;;;;;3.63;1.50;;;;;;;9.64;100.00;99973.25;5177954;27;20003;-75
2024/04/19 11:08:43;;;;;;;5.82;1.50;;;;;;;9.84;100.00;99966.91;5169196;27;20031;-74
2024/04/19 11:11:09;;;;;;;6.65;1.92;;;;;;;10.00;100.00;99971.00;5201231;27;20039;-73
2024/04/19 11:13:36;;;;;;;;;;;;;;;10.00;100.00;99959.50;5182321;27;20003;-73
2024/04/19 11:16:02;;;;;;;7.32;1.55;;;;;;;9.85;100.00;99965.81;5205142;27;19928;-74
2024/04/19 11:18:28;;;;;;;4.97;1.67;;;;;;;9.87;100.00;99954.81;5148787;27;20000;-75
2024/04/19 11:20:54;;;;;;;;;;;;;;;9.71;100.00;99951.53;5141809;27;20015;-74
2024/04/19 11:23:20;;;;;;;5.60;1.50;;;;;;;9.67;100.00;99953.16;5148089;27;19936;-75
2024/04/19 11:25:46;;;;;;;5.78;1.55;;;;;;;9.65;100.00;99953.44;5196732;27;20007;-73
2024/04/19 11:28:12;;;;;;;6.72;1.60;;;;;;;9.71;100.00;99951.53;5179498;27;20107;-75
2024/04/19 11:30:39;;;;;;;6.50;2.22;;;;;;;9.71;100.00;99946.19;5173558;27;20007;-75
2024/04/19 11:33:10;;;;;;;8.52;3.00;;;;;;;9.75;100.00;99944.50;5176862;27;20095;-75